Time;durP1;ratioP1;P1;durP2;ratioP2;P2;SDS_P1;SDS_P2;PMS_P1;PMS_P2;Temp;Humidity;BMP_temperature;BMP_pressure;BME280_temperature;BME280_humidity;BME280_pressure;Samples;Min_cycle;Max_cycle;Signal;HPM_P1;HPM_P2
2023/04/25 00:01:18;;;;;;;3.10;2.42;;;16.40;79.90;;;;;;10828379;32;20068;-73
2023/04/25 00:07:20;;;;;;;4.47;2.35;;;16.60;80.10;;;;;;10787223;33;20032;-73
2023/04/25 00:13:23;;;;;;;3.72;1.98;;;16.70;79.60;;;;;;10788728;33;20077;-74
2023/04/25 00:19:26;;;;;;;2.35;1.75;;;16.60;79.60;;;;;;10838667;32;20019;-74
2023/04/25 00:25:28;;;;;;;2.00;1.80;;;16.50;79.60;;;;;;10788307;33;20433;-73
2023/04/25 00:31:30;;;;;;;2.53;1.67;;;16.60;79.50;;;;;;10838141;32;20071;-73
2023/04/25 00:37:33;;;;;;;1.92;1.55;;;16.60;79.40;;;;;;10788052;33;20382;-73
2023/04/25 00:43:37;;;;;;;1.92;1.65;;;16.60;79.40;;;;;;10836819;32;20054;-73
2023/04/25 00:49:39;;;;;;;3.60;2.87;;;16.60;79.30;;;;;;10788345;33;20024;-73
2023/04/25 00:55:41;;;;;;;3.65;2.55;;;16.60;79.40;;;;;;10837053;32;20028;-73
2023/04/25 01:01:44;;;;;;;3.78;2.55;;;16.60;79.50;;;;;;10787527;33;20017;-73
2023/04/25 01:07:47;;;;;;;2.42;2.00;;;16.50;79.30;;;;;;10785724;33;20055;-73
2023/04/25 01:13:49;;;;;;;3.60;2.10;;;16.50;79.20;;;;;;10786115;33;20020;-73
2023/04/25 01:19:51;;;;;;;3.78;2.28;;;16.40;79.90;;;;;;10786516;33;20043;-73
2023/04/25 01:32:24;;;;;;;2.95;1.80;;;16.30;79.70;;;;;;10842802;32;20063;-74
2023/04/25 01:38:26;;;;;;;4.60;2.62;;;16.20;79.60;;;;;;10793567;33;20016;-73
2023/04/25 01:44:29;;;;;;;2.65;1.90;;;16.10;79.80;;;;;;10842664;32;20024;-73
2023/04/25 01:50:31;;;;;;;2.50;1.77;;;16.20;79.80;;;;;;10791921;32;20406;-73
2023/04/25 01:56:37;;;;;;;3.37;2.37;;;16.20;80.10;;;;;;10791317;33;20016;-73
2023/04/25 02:02:39;;;;;;;2.75;1.80;;;16.20;80.40;;;;;;10842280;32;20064;-73
2023/04/25 02:08:42;;;;;;;3.42;2.53;;;16.20;80.20;;;;;;10787640;33;20024;-73
2023/04/25 02:14:47;;;;;;;4.32;2.60;;;16.10;80.60;;;;;;10792017;33;20054;-73
2023/04/25 02:21:11;;;;;;;2.95;2.08;;;16.00;80.70;;;;;;10831565;32;20421;-74
2023/04/25 02:27:24;;;;;;;10.00;2.40;;;16.00;80.20;;;;;;10790578;33;20066;-74
2023/04/25 02:33:26;;;;;;;2.30;1.80;;;16.00;79.90;;;;;;10841284;32;20055;-74
2023/04/25 02:39:34;;;;;;;3.12;2.08;;;15.90;80.00;;;;;;10840974;32;20296;-74
2023/04/25 02:45:40;;;;;;;2.03;1.73;;;15.90;80.60;;;;;;10790004;33;20047;-73
2023/04/25 02:51:43;;;;;;;3.10;2.60;;;16.00;80.80;;;;;;10789648;32;20054;-74
2023/04/25 02:57:45;;;;;;;5.12;3.28;;;16.00;80.80;;;;;;10789642;33;20024;-74
2023/04/25 03:03:48;;;;;;;4.50;2.58;;;16.00;80.40;;;;;;10790090;33;20385;-74
2023/04/25 03:09:50;;;;;;;4.47;2.90;;;15.80;80.60;;;;;;10790489;33;20051;-74
2023/04/25 03:15:52;;;;;;;3.58;2.65;;;15.80;80.80;;;;;;10788455;33;20032;-74
2023/04/25 03:21:55;;;;;;;3.80;2.75;;;15.80;80.50;;;;;;10791370;33;20046;-74
2023/04/25 03:27:58;;;;;;;3.65;2.80;;;15.80;80.60;;;;;;10790728;33;20445;-74
2023/04/25 03:34:00;;;;;;;4.80;3.45;;;15.80;80.50;;;;;;10788571;33;20334;-74
2023/04/25 03:40:03;;;;;;;4.00;2.47;;;15.70;80.50;;;;;;10789095;33;20082;-74
2023/04/25 03:46:06;;;;;;;3.55;2.47;;;15.70;80.90;;;;;;10789498;33;20386;-74
2023/04/25 03:52:08;;;;;;;4.53;2.85;;;15.70;80.80;;;;;;10784008;33;20075;-74
2023/04/25 03:58:10;;;;;;;5.70;3.65;;;15.80;80.80;;;;;;10788007;33;20020;-74
2023/04/25 04:04:13;;;;;;;6.53;4.47;;;15.80;81.30;;;;;;10784463;33;20055;-74
2023/04/25 04:10:16;;;;;;;3.67;2.85;;;15.50;81.50;;;;;;10783918;33;20424;-74
2023/04/25 04:16:19;;;;;;;6.97;4.22;;;15.40;81.90;;;;;;10787395;33;20354;-73
2023/04/25 04:22:23;;;;;;;4.70;3.30;;;15.30;82.00;;;;;;10839035;32;20410;-74
2023/04/25 04:28:26;;;;;;;6.25;4.62;;;15.20;82.20;;;;;;10787801;33;20398;-73
2023/04/25 04:34:30;;;;;;;4.47;2.78;;;15.20;82.10;;;;;;10835604;32;20386;-74
2023/04/25 04:40:33;;;;;;;4.85;3.33;;;15.20;82.10;;;;;;10837674;32;20032;-75
2023/04/25 04:46:41;;;;;;;3.33;2.60;;;15.20;82.60;;;;;;10786671;33;20051;-75
2023/04/25 04:52:44;;;;;;;3.22;2.37;;;15.30;82.60;;;;;;10786697;33;20066;-75
2023/04/25 04:58:48;;;;;;;4.95;2.45;;;15.40;82.70;;;;;;10786771;33;20428;-75
2023/04/25 05:04:51;;;;;;;4.57;3.30;;;15.50;82.60;;;;;;10840298;32;20050;-74
2023/04/25 05:10:54;;;;;;;8.02;4.43;;;15.40;82.30;;;;;;10793263;33;20326;-74
2023/04/25 05:16:58;;;;;;;2.53;1.83;;;15.20;82.10;;;;;;10792671;33;20056;-76
2023/04/25 05:23:00;;;;;;;5.95;3.95;;;15.00;82.00;;;;;;10843150;32;20020;-76
2023/04/25 05:29:03;;;;;;;8.07;4.70;;;15.10;82.00;;;;;;10842582;32;20035;-75
2023/04/25 05:35:06;;;;;;;7.47;5.05;;;14.80;82.10;;;;;;10842737;32;20032;-76
2023/04/25 05:41:16;;;;;;;4.12;2.58;;;14.70;82.80;;;;;;10788337;33;20025;-74
2023/04/25 05:47:53;;;;;;;3.75;2.58;;;14.80;82.30;;;;;;10791082;33;20417;-75
2023/04/25 05:53:57;;;;;;;3.80;2.12;;;14.70;82.20;;;;;;10791852;33;20058;-74
2023/04/25 06:00:08;;;;;;;6.57;4.87;;;14.90;82.10;;;;;;10791344;33;20008;-74
2023/04/25 06:06:34;;;;;;;4.68;3.00;;;15.00;82.20;;;;;;10792208;32;20130;-74
2023/04/25 06:12:36;;;;;;;3.33;2.55;;;15.00;82.50;;;;;;10788274;33;20351;-74
2023/04/25 06:18:39;;;;;;;3.58;2.00;;;15.20;82.40;;;;;;10787929;33;20047;-74
2023/04/25 06:24:42;;;;;;;5.90;3.75;;;15.20;82.20;;;;;;10791898;33;20051;-74
2023/04/25 06:30:47;;;;;;;4.32;3.15;;;15.20;82.00;;;;;;10790420;33;20024;-74
2023/04/25 06:36:49;;;;;;;4.43;2.85;;;15.10;82.30;;;;;;10791702;33;20008;-74
2023/04/25 06:42:52;;;;;;;4.03;2.53;;;15.10;82.40;;;;;;10789720;33;20028;-74
2023/04/25 06:48:55;;;;;;;3.37;2.67;;;15.00;82.20;;;;;;10790535;33;20432;-74
2023/04/25 06:54:59;;;;;;;4.53;3.58;;;15.00;82.30;;;;;;10787407;33;20055;-73
2023/04/25 07:01:05;;;;;;;8.18;5.20;;;14.90;82.70;;;;;;10790773;33;20029;-73
2023/04/25 07:07:07;;;;;;;4.65;3.35;;;14.90;83.10;;;;;;10827472;32;20079;-74
2023/04/25 07:13:11;;;;;;;4.45;3.25;;;14.90;83.10;;;;;;10836560;32;20054;-73
2023/04/25 07:19:14;;;;;;;3.40;2.60;;;15.00;83.00;;;;;;10786839;33;20016;-74
2023/04/25 07:25:18;;;;;;;6.03;2.97;;;15.00;83.00;;;;;;10790165;33;20370;-73
2023/04/25 07:31:25;;;;;;;6.27;2.87;;;15.00;83.00;;;;;;10789900;33;20308;-73
2023/04/25 07:37:27;;;;;;;8.48;5.68;;;15.00;83.00;;;;;;10823461;32;20051;-73
2023/04/25 07:43:30;;;;;;;4.40;2.83;;;14.90;83.00;;;;;;10789710;33;20051;-73
2023/04/25 07:49:37;;;;;;;7.47;5.30;;;14.80;83.20;;;;;;10789526;33;20016;-73
2023/04/25 07:55:40;;;;;;;6.10;3.78;;;14.80;83.30;;;;;;10789701;27;20032;-73
2023/04/25 08:01:42;;;;;;;4.78;3.17;;;14.70;83.60;;;;;;10838361;32;20043;-73
2023/04/25 08:07:45;;;;;;;6.80;4.55;;;14.70;83.60;;;;;;10789014;33;20319;-74
2023/04/25 08:13:48;;;;;;;6.68;4.62;;;14.80;83.40;;;;;;10787710;33;20028;-74
2023/04/25 08:19:50;;;;;;;6.28;4.05;;;14.80;83.40;;;;;;10788710;33;20027;-74
2023/04/25 08:25:53;;;;;;;7.85;5.95;;;14.80;83.40;;;;;;10838200;32;20311;-74
2023/04/25 08:31:57;;;;;;;6.68;4.03;;;14.90;83.40;;;;;;10787175;33;20433;-74
2023/04/25 08:38:00;;;;;;;5.75;4.22;;;14.80;83.60;;;;;;10835772;32;20051;-73
2023/04/25 08:44:04;;;;;;;5.50;4.22;;;14.80;83.50;;;;;;10793755;33;20020;-73
2023/04/25 08:50:07;;;;;;;4.75;3.15;;;14.80;83.40;;;;;;10794609;33;20058;-73
2023/04/25 08:56:13;;;;;;;8.65;6.62;;;14.80;83.20;;;;;;10793239;33;20052;-73
2023/04/25 09:02:17;;;;;;;9.82;6.07;;;14.80;83.30;;;;;;10794929;33;20062;-73
2023/04/25 09:08:20;;;;;;;12.00;9.45;;;14.60;83.30;;;;;;10789423;33;20075;-73
2023/04/25 09:14:25;;;;;;;17.87;13.32;;;14.40;83.30;;;;;;10843802;32;20059;-72
2023/04/25 09:20:28;;;;;;;31.70;28.15;;;14.20;83.40;;;;;;10793953;33;20383;-73
2023/04/25 09:26:32;;;;;;;6.78;5.80;;;13.90;83.20;;;;;;10792465;33;20050;-72
2023/04/25 09:32:35;;;;;;;9.00;5.75;;;13.70;83.10;;;;;;10789124;33;20054;-73
2023/04/25 09:38:45;;;;;;;5.93;4.07;;;13.50;83.20;;;;;;10793210;33;20296;-70
2023/04/25 09:44:48;;;;;;;5.22;3.70;;;13.50;83.50;;;;;;10791825;33;20016;-73
2023/04/25 09:51:10;;;;;;;7.22;5.15;;;13.70;83.60;;;;;;10792459;32;20032;-71
2023/04/25 09:57:18;;;;;;;8.10;4.62;;;13.80;83.70;;;;;;10789742;33;20032;-73
2023/04/25 10:03:25;;;;;;;6.25;4.72;;;13.90;83.90;;;;;;10788863;33;20383;-72
2023/04/25 10:09:33;;;;;;;5.65;3.17;;;14.10;84.30;;;;;;10791213;33;20047;-73
2023/04/25 10:15:39;;;;;;;1.83;1.67;;;14.20;84.70;;;;;;10791703;33;20020;-73
2023/04/25 10:21:49;;;;;;;3.17;2.08;;;14.40;84.60;;;;;;10799369;32;20406;-71
2023/04/25 10:27:52;;;;;;;2.08;1.52;;;14.70;84.30;;;;;;10754749;33;20029;-72
2023/04/25 10:33:54;;;;;;;1.30;1.12;;;15.00;83.80;;;;;;10754772;33;20013;-73
2023/04/25 10:39:56;;;;;;;1.95;1.33;;;15.20;83.30;;;;;;10818286;32;20032;-73
2023/04/25 10:46:02;;;;;;;1.98;1.17;;;15.40;81.70;;;;;;10754958;33;20051;-74
2023/04/25 10:52:32;;;;;;;1.62;1.33;;;15.70;81.00;;;;;;10753453;33;20060;-73
2023/04/25 10:58:35;;;;;;;1.85;1.00;;;16.00;80.70;;;;;;10753300;32;20033;-73
2023/04/25 11:04:38;;;;;;;1.37;1.20;;;16.10;80.40;;;;;;10752198;33;20043;-73
2023/04/25 11:10:40;;;;;;;1.45;1.05;;;16.40;80.60;;;;;;10753552;33;20021;-73
2023/04/25 11:16:42;;;;;;;3.42;1.05;;;16.70;79.40;;;;;;10754017;33;20047;-72
2023/04/25 11:22:46;;;;;;;1.42;1.12;;;16.70;79.30;;;;;;10753249;33;20044;-72
2023/04/25 11:28:49;;;;;;;1.42;1.00;;;16.90;79.80;;;;;;10754196;33;20066;-72
2023/04/25 11:34:52;;;;;;;2.05;1.15;;;16.90;79.90;;;;;;10753404;33;20029;-71
2023/04/25 11:40:55;;;;;;;1.70;1.27;;;17.10;79.50;;;;;;10752076;33;20025;-72
2023/04/25 11:46:57;;;;;;;1.42;1.05;;;17.40;78.90;;;;;;10814420;32;20043;-71
2023/04/25 11:52:59;;;;;;;1.20;1.08;;;17.60;78.50;;;;;;10801635;32;20457;-73
2023/04/25 11:59:04;;;;;;;1.02;0.85;;;17.80;79.00;;;;;;10751579;33;20432;-71
2023/04/25 12:05:08;;;;;;;1.98;1.10;;;17.60;79.70;;;;;;10801172;32;20032;-72
2023/04/25 12:11:21;;;;;;;3.65;1.12;;;17.70;79.20;;;;;;10751172;33;20021;-72
2023/04/25 12:17:23;;;;;;;0.90;0.82;;;17.50;79.50;;;;;;10750355;33;20021;-71
2023/04/25 12:23:27;;;;;;;0.90;0.90;;;17.60;78.90;;;;;;10764579;33;20055;-72
2023/04/25 12:29:31;;;;;;;1.77;1.00;;;17.70;79.40;;;;;;10787474;33;20064;-72
2023/04/25 12:35:33;;;;;;;2.45;1.42;;;17.70;79.60;;;;;;10787254;33;20050;-72
2023/04/25 12:41:35;;;;;;;0.73;0.73;;;17.50;80.00;;;;;;10837617;32;20043;-72
2023/04/25 12:47:37;;;;;;;1.70;1.20;;;17.50;79.20;;;;;;10786839;33;20024;-71
2023/04/25 12:53:40;;;;;;;1.58;1.00;;;17.50;79.00;;;;;;10835129;32;20086;-72
2023/04/25 12:59:42;;;;;;;1.00;0.88;;;17.50;78.10;;;;;;10784685;33;20021;-72
2023/04/25 13:05:44;;;;;;;2.17;1.30;;;17.70;78.10;;;;;;10786320;33;20012;-71
2023/04/25 13:11:46;;;;;;;2.30;1.05;;;17.70;78.30;;;;;;10787508;32;20117;-71
2023/04/25 13:17:49;;;;;;;0.93;0.88;;;17.60;78.00;;;;;;10786243;33;20407;-72
2023/04/25 13:23:51;;;;;;;0.77;0.70;;;17.50;78.40;;;;;;10786554;33;20414;-72
2023/04/25 13:29:53;;;;;;;1.25;0.80;;;17.30;78.00;;;;;;10789134;33;20044;-73
2023/04/25 13:35:56;;;;;;;4.90;0.90;;;17.30;77.40;;;;;;10842937;32;20047;-72
2023/04/25 13:41:58;;;;;;;1.30;1.00;;;17.30;77.30;;;;;;10788893;33;20032;-72
2023/04/25 13:48:01;;;;;;;0.90;0.90;;;17.20;77.30;;;;;;10790885;33;20032;-72
2023/04/25 13:54:03;;;;;;;2.25;1.00;;;17.10;77.70;;;;;;10842159;32;20028;-72
2023/04/25 14:00:08;;;;;;;0.88;0.88;;;17.00;77.30;;;;;;10791410;33;20020;-72
2023/04/25 14:06:12;;;;;;;0.73;0.70;;;17.10;77.80;;;;;;10791282;33;20047;-72
2023/04/25 14:12:15;;;;;;;0.98;0.77;;;17.00;77.00;;;;;;10790965;33;20016;-73
2023/04/25 14:18:18;;;;;;;1.10;0.90;;;17.20;77.10;;;;;;10789869;33;20028;-73
2023/04/25 14:24:20;;;;;;;1.10;1.00;;;17.30;76.70;;;;;;10817187;32;20037;-73
2023/04/25 14:30:22;;;;;;;3.20;1.35;;;17.30;76.60;;;;;;10754198;33;20480;-73
2023/04/25 14:36:26;;;;;;;4.78;1.33;;;17.20;76.70;;;;;;10753270;33;20047;-73
2023/04/25 14:42:28;;;;;;;1.70;1.05;;;17.10;77.20;;;;;;10753822;33;20051;-73
2023/04/25 14:48:30;;;;;;;1.48;0.95;;;17.10;77.50;;;;;;10753673;33;20060;-73
2023/04/25 14:54:32;;;;;;;7.32;1.33;;;17.00;77.70;;;;;;10803547;32;20037;-73
2023/04/25 15:00:35;;;;;;;0.95;0.95;;;17.00;78.20;;;;;;10800535;32;20036;-73
2023/04/25 15:06:37;;;;;;;1.48;1.15;;;17.00;78.00;;;;;;10750679;33;20036;-73
2023/04/25 15:12:43;;;;;;;1.35;1.25;;;17.00;77.80;;;;;;10753088;33;20056;-73
2023/04/25 15:18:45;;;;;;;1.73;1.33;;;17.10;76.80;;;;;;10799856;32;20063;-73
2023/04/25 15:24:47;;;;;;;5.37;1.35;;;17.30;77.40;;;;;;10752761;33;20031;-74
2023/04/25 15:31:36;;;;;;;1.25;1.15;;;17.80;76.40;;;;;;10799449;32;20117;-73
2023/04/25 15:37:40;;;;;;;1.50;1.20;;;18.20;75.20;;;;;;10749922;33;20395;-73
2023/04/25 15:43:42;;;;;;;1.70;1.48;;;18.20;75.00;;;;;;10753242;33;20039;-73
2023/04/25 15:49:44;;;;;;;3.20;1.73;;;17.80;73.80;;;;;;10752024;33;20024;-73
2023/04/25 15:55:46;;;;;;;5.35;3.08;;;17.50;74.70;;;;;;10786646;27;20410;-74
2023/04/25 16:01:49;;;;;;;1.48;1.37;;;17.30;74.40;;;;;;10822125;32;20437;-74
2023/04/25 16:07:52;;;;;;;4.68;1.70;;;17.10;73.50;;;;;;10789071;33;20398;-73
2023/04/25 16:13:54;;;;;;;1.73;1.20;;;16.80;71.80;;;;;;10788296;33;20047;-74
2023/04/25 16:19:58;;;;;;;2.40;1.62;;;16.60;71.20;;;;;;10784355;33;20020;-73
2023/04/25 16:26:00;;;;;;;2.90;1.60;;;16.60;72.20;;;;;;10789048;33;20052;-73
2023/04/25 16:32:03;;;;;;;1.17;1.08;;;16.70;72.50;;;;;;10786909;33;20027;-72
2023/04/25 16:38:05;;;;;;;1.98;1.20;;;16.90;72.60;;;;;;10789115;33;20042;-73
2023/04/25 16:44:08;;;;;;;2.65;1.45;;;17.00;72.60;;;;;;10788276;33;20063;-72
2023/04/25 16:50:12;;;;;;;1.17;0.93;;;17.50;72.60;;;;;;10761490;33;20078;-74
2023/04/25 16:56:14;;;;;;;1.52;1.05;;;19.00;70.00;;;;;;10764159;33;20055;-75
2023/04/25 17:02:16;;;;;;;1.87;1.33;;;20.30;67.90;;;;;;10787189;32;20414;-74
2023/04/25 17:08:19;;;;;;;1.92;1.20;;;20.10;68.10;;;;;;10773777;33;20358;-75
2023/04/25 17:14:21;;;;;;;1.20;1.08;;;19.60;69.50;;;;;;10749518;33;20052;-75
2023/04/25 17:20:23;;;;;;;1.70;1.17;;;19.20;69.70;;;;;;10774565;33;20040;-75
2023/04/25 17:26:26;;;;;;;2.72;1.12;;;19.90;68.30;;;;;;10844109;32;20307;-75
2023/04/25 17:32:29;;;;;;;1.77;0.90;;;20.80;67.00;;;;;;10793541;33;20312;-74
2023/04/25 17:38:31;;;;;;;2.37;1.30;;;20.10;69.40;;;;;;10793589;33;20012;-74
2023/04/25 17:44:34;;;;;;;2.00;1.35;;;19.30;71.10;;;;;;10770013;33;20059;-73
2023/04/25 17:50:36;;;;;;;2.85;1.55;;;18.80;71.60;;;;;;10751327;32;20028;-74
2023/04/25 17:56:39;;;;;;;1.27;1.00;;;18.20;72.80;;;;;;10801500;32;20029;-74
2023/04/25 18:02:41;;;;;;;1.40;1.00;;;17.70;74.50;;;;;;10814493;32;20044;-74
2023/04/25 18:08:44;;;;;;;1.35;0.90;;;17.50;75.00;;;;;;10799974;32;20508;-74
2023/04/25 18:14:46;;;;;;;1.80;1.40;;;17.30;75.20;;;;;;10747789;33;20020;-73
2023/04/25 18:20:48;;;;;;;4.20;2.95;;;17.00;75.10;;;;;;10750797;33;20055;-73
2023/04/25 18:26:53;;;;;;;2.47;1.92;;;16.70;75.00;;;;;;10813395;32;20033;-74
2023/04/25 18:32:56;;;;;;;2.62;1.80;;;16.40;75.30;;;;;;10748908;33;20062;-74
2023/04/25 18:39:00;;;;;;;1.73;1.40;;;16.30;75.50;;;;;;10750347;33;20429;-74
2023/04/25 18:45:04;;;;;;;2.95;1.80;;;16.20;75.60;;;;;;10750013;33;20025;-74
2023/04/25 18:51:06;;;;;;;3.25;1.80;;;16.10;75.80;;;;;;10750015;32;20351;-75
2023/04/25 18:57:10;;;;;;;2.70;1.83;;;16.00;76.70;;;;;;10750749;33;20063;-74
2023/04/25 19:03:12;;;;;;;2.40;1.85;;;16.00;76.90;;;;;;10780774;33;20412;-74
2023/04/25 19:09:14;;;;;;;2.33;1.80;;;15.90;76.20;;;;;;10833659;32;20062;-74
2023/04/25 19:15:17;;;;;;;2.47;2.03;;;15.80;77.20;;;;;;10786464;33;20303;-74
2023/04/25 19:21:20;;;;;;;1.55;1.40;;;15.80;77.30;;;;;;10790170;33;20025;-74
2023/04/25 19:27:22;;;;;;;3.33;2.35;;;15.70;77.30;;;;;;10840139;32;20424;-74
2023/04/25 19:33:24;;;;;;;2.58;1.83;;;15.70;77.40;;;;;;10786171;33;20032;-74
2023/04/25 19:39:27;;;;;;;2.50;1.75;;;15.60;77.50;;;;;;10790100;33;20070;-75
2023/04/25 19:45:30;;;;;;;2.55;1.95;;;15.60;77.70;;;;;;10789823;33;20424;-74
2023/04/25 19:51:33;;;;;;;1.65;1.55;;;15.70;77.80;;;;;;10839844;32;20050;-74
2023/04/25 19:57:36;;;;;;;2.65;2.05;;;15.60;77.70;;;;;;10789408;33;20033;-75
2023/04/25 20:03:39;;;;;;;2.58;2.03;;;15.40;78.00;;;;;;10789391;33;20331;-74
2023/04/25 20:09:41;;;;;;;2.53;1.95;;;15.30;78.10;;;;;;10839728;32;20028;-74
2023/04/25 20:15:43;;;;;;;1.30;1.20;;;15.30;78.30;;;;;;10826726;32;20059;-74
2023/04/25 20:21:46;;;;;;;2.75;1.70;;;15.20;78.40;;;;;;10750706;33;20040;-74
2023/04/25 20:27:48;;;;;;;2.30;1.70;;;15.10;78.40;;;;;;10750389;33;20021;-74
2023/04/25 20:33:50;;;;;;;3.65;2.22;;;15.20;78.50;;;;;;10749981;33;20063;-74
2023/04/25 20:39:52;;;;;;;2.25;1.75;;;15.20;78.60;;;;;;10746157;33;20055;-74
2023/04/25 20:45:56;;;;;;;2.75;2.10;;;15.10;78.60;;;;;;10747010;33;20040;-74
2023/04/25 20:51:58;;;;;;;2.97;1.80;;;15.00;78.80;;;;;;10761358;33;20437;-74
2023/04/25 20:58:00;;;;;;;3.80;1.80;;;14.90;79.00;;;;;;10787537;33;20020;-74
2023/04/25 21:04:02;;;;;;;4.57;1.80;;;14.80;79.00;;;;;;10774137;33;20390;-74
2023/04/25 21:10:04;;;;;;;3.45;2.50;;;14.80;79.10;;;;;;10787837;33;20394;-74
2023/04/25 21:16:06;;;;;;;2.35;1.83;;;14.90;79.20;;;;;;10786505;33;20354;-74
2023/04/25 21:22:09;;;;;;;3.45;2.42;;;14.90;79.00;;;;;;10787582;33;20318;-74
2023/04/25 21:28:11;;;;;;;3.40;2.10;;;14.80;79.10;;;;;;10773985;32;20063;-74
2023/04/25 21:34:13;;;;;;;4.93;2.67;;;14.60;79.30;;;;;;10787389;33;20051;-74
2023/04/25 21:40:16;;;;;;;4.87;3.05;;;14.50;79.50;;;;;;10768336;33;20067;-75
2023/04/25 21:46:21;;;;;;;3.90;2.85;;;14.50;79.40;;;;;;10775871;33;20046;-75
2023/04/25 21:52:23;;;;;;;2.97;2.30;;;14.40;79.50;;;;;;10791841;33;20024;-75
2023/04/25 21:58:26;;;;;;;2.12;1.90;;;14.50;79.90;;;;;;10791063;33;20048;-75
2023/04/25 22:04:28;;;;;;;2.85;2.10;;;14.60;80.30;;;;;;10792791;33;20039;-75
2023/04/25 22:10:30;;;;;;;2.35;1.70;;;14.50;80.10;;;;;;10780095;33;20386;-75
2023/04/25 22:16:32;;;;;;;2.87;2.10;;;14.20;80.20;;;;;;10792512;33;20016;-75
2023/04/25 22:22:35;;;;;;;3.03;2.10;;;14.20;80.40;;;;;;10779758;33;20334;-75
2023/04/25 22:28:38;;;;;;;2.90;2.55;;;14.10;80.30;;;;;;10792008;33;20051;-74
2023/04/25 22:34:41;;;;;;;3.47;2.35;;;14.10;80.50;;;;;;10779546;33;20550;-75
2023/04/25 22:40:46;;;;;;;3.85;2.37;;;14.10;80.60;;;;;;10790733;33;20043;-75
2023/04/25 22:46:49;;;;;;;4.15;2.85;;;14.00;80.60;;;;;;10787528;33;20047;-75
2023/04/25 22:52:51;;;;;;;2.67;2.03;;;14.10;81.00;;;;;;10790380;33;20082;-75
2023/04/25 22:58:54;;;;;;;3.60;2.40;;;14.10;80.80;;;;;;10773015;33;20406;-75
2023/04/25 23:04:56;;;;;;;10.63;6.25;;;13.90;80.80;;;;;;10786728;33;20042;-75
2023/04/25 23:10:58;;;;;;;9.68;5.45;;;13.80;81.10;;;;;;10790720;33;20016;-75
2023/04/25 23:17:00;;;;;;;8.20;4.70;;;13.70;81.20;;;;;;10786757;33;20387;-75
2023/04/25 23:23:02;;;;;;;6.97;4.25;;;13.80;81.40;;;;;;10789216;33;20066;-75
2023/04/25 23:29:04;;;;;;;4.80;2.78;;;13.90;81.20;;;;;;10788605;33;20031;-75
2023/04/25 23:35:07;;;;;;;7.00;3.90;;;13.70;81.10;;;;;;10763999;32;20354;-75
2023/04/25 23:41:10;;;;;;;4.55;2.97;;;13.70;81.30;;;;;;10776329;33;20292;-75
2023/04/25 23:47:12;;;;;;;5.57;2.85;;;13.70;81.10;;;;;;10775427;32;20040;-75
2023/04/25 23:53:14;;;;;;;4.53;3.80;;;13.70;80.90;;;;;;10564978;27;7562348;-75
2023/04/25 23:59:16;;;;;;;4.68;3.47;;;13.60;81.00;;;;;;10789672;33;20330;-75
